sensor_id;sensor_type;location;lat;lon;timestamp;P1;durP1;ratioP1;P2;durP2;ratioP2
19205;SDS011;59358;52.134;5.596;2023-05-31T00:01:29;13.07;;;7.40;;
19205;SDS011;59358;52.134;5.596;2023-05-31T00:03:56;13.13;;;7.07;;
19205;SDS011;59358;52.134;5.596;2023-05-31T00:06:23;10.80;;;6.88;;
19205;SDS011;59358;52.134;5.596;2023-05-31T00:08:51;10.30;;;6.78;;
19205;SDS011;59358;52.134;5.596;2023-05-31T00:11:18;12.88;;;6.85;;
19205;SDS011;59358;52.134;5.596;2023-05-31T00:13:45;13.90;;;7.35;;
19205;SDS011;59358;52.134;5.596;2023-05-31T00:16:12;12.60;;;7.05;;
19205;SDS011;59358;52.134;5.596;2023-05-31T00:18:39;14.07;;;7.00;;
19205;SDS011;59358;52.134;5.596;2023-05-31T00:21:06;14.45;;;7.57;;
19205;SDS011;59358;52.134;5.596;2023-05-31T00:23:33;13.75;;;7.30;;
19205;SDS011;59358;52.134;5.596;2023-05-31T00:26:01;14.35;;;6.90;;
19205;SDS011;59358;52.134;5.596;2023-05-31T00:28:28;13.90;;;7.57;;
19205;SDS011;59358;52.134;5.596;2023-05-31T00:30:55;13.60;;;7.95;;
19205;SDS011;59358;52.134;5.596;2023-05-31T00:33:21;12.35;;;7.18;;
19205;SDS011;59358;52.134;5.596;2023-05-31T00:35:48;14.27;;;7.65;;
19205;SDS011;59358;52.134;5.596;2023-05-31T00:38:15;14.27;;;7.63;;
19205;SDS011;59358;52.134;5.596;2023-05-31T00:40:42;14.55;;;7.85;;
19205;SDS011;59358;52.134;5.596;2023-05-31T00:43:10;13.38;;;7.70;;
19205;SDS011;59358;52.134;5.596;2023-05-31T00:45:37;15.85;;;8.02;;
19205;SDS011;59358;52.134;5.596;2023-05-31T00:48:04;15.18;;;7.38;;
19205;SDS011;59358;52.134;5.596;2023-05-31T00:50:31;15.18;;;7.72;;
19205;SDS011;59358;52.134;5.596;2023-05-31T00:52:59;19.00;;;8.60;;
19205;SDS011;59358;52.134;5.596;2023-05-31T00:55:27;14.25;;;7.20;;
19205;SDS011;59358;52.134;5.596;2023-05-31T00:57:55;11.20;;;7.43;;
19205;SDS011;59358;52.134;5.596;2023-05-31T01:00:24;13.30;;;8.15;;
19205;SDS011;59358;52.134;5.596;2023-05-31T01:02:50;13.57;;;8.93;;
19205;SDS011;59358;52.134;5.596;2023-05-31T01:05:18;16.65;;;8.70;;
19205;SDS011;59358;52.134;5.596;2023-05-31T01:07:45;15.40;;;8.25;;
19205;SDS011;59358;52.134;5.596;2023-05-31T01:10:12;14.77;;;7.85;;
19205;SDS011;59358;52.134;5.596;2023-05-31T01:12:41;14.98;;;8.45;;
19205;SDS011;59358;52.134;5.596;2023-05-31T01:15:19;12.18;;;7.18;;
19205;SDS011;59358;52.134;5.596;2023-05-31T01:17:51;15.20;;;8.55;;
19205;SDS011;59358;52.134;5.596;2023-05-31T01:20:24;14.57;;;7.85;;
19205;SDS011;59358;52.134;5.596;2023-05-31T01:23:02;14.20;;;7.60;;
19205;SDS011;59358;52.134;5.596;2023-05-31T01:25:33;13.80;;;7.47;;
19205;SDS011;59358;52.134;5.596;2023-05-31T01:28:12;15.52;;;8.00;;
19205;SDS011;59358;52.134;5.596;2023-05-31T01:30:41;15.02;;;8.20;;
19205;SDS011;59358;52.134;5.596;2023-05-31T01:33:11;12.32;;;8.05;;
19205;SDS011;59358;52.134;5.596;2023-05-31T01:35:39;13.35;;;7.93;;
19205;SDS011;59358;52.134;5.596;2023-05-31T01:38:06;15.82;;;8.05;;
19205;SDS011;59358;52.134;5.596;2023-05-31T01:40:33;15.30;;;8.32;;
19205;SDS011;59358;52.134;5.596;2023-05-31T01:43:00;17.75;;;8.52;;
19205;SDS011;59358;52.134;5.596;2023-05-31T01:45:30;11.75;;;7.47;;
19205;SDS011;59358;52.134;5.596;2023-05-31T01:47:58;16.40;;;8.25;;
19205;SDS011;59358;52.134;5.596;2023-05-31T01:50:27;16.50;;;8.68;;
19205;SDS011;59358;52.134;5.596;2023-05-31T01:52:55;14.20;;;8.02;;
19205;SDS011;59358;52.134;5.596;2023-05-31T01:55:21;17.42;;;9.50;;
19205;SDS011;59358;52.134;5.596;2023-05-31T01:57:48;15.88;;;8.30;;
19205;SDS011;59358;52.134;5.596;2023-05-31T02:00:17;15.05;;;7.75;;
19205;SDS011;59358;52.134;5.596;2023-05-31T02:02:46;16.65;;;8.38;;
19205;SDS011;59358;52.134;5.596;2023-05-31T02:05:13;15.77;;;8.13;;
19205;SDS011;59358;52.134;5.596;2023-05-31T02:07:41;14.25;;;8.40;;
19205;SDS011;59358;52.134;5.596;2023-05-31T02:10:09;15.65;;;8.52;;
19205;SDS011;59358;52.134;5.596;2023-05-31T02:12:37;15.18;;;7.65;;
19205;SDS011;59358;52.134;5.596;2023-05-31T02:15:05;17.15;;;7.63;;
19205;SDS011;59358;52.134;5.596;2023-05-31T02:17:35;16.95;;;8.02;;
19205;SDS011;59358;52.134;5.596;2023-05-31T02:20:07;15.27;;;9.20;;
19205;SDS011;59358;52.134;5.596;2023-05-31T02:22:35;15.10;;;8.15;;
19205;SDS011;59358;52.134;5.596;2023-05-31T02:25:02;19.60;;;8.65;;
19205;SDS011;59358;52.134;5.596;2023-05-31T02:27:30;20.33;;;9.50;;
19205;SDS011;59358;52.134;5.596;2023-05-31T02:29:57;14.57;;;7.90;;
19205;SDS011;59358;52.134;5.596;2023-05-31T02:32:23;18.38;;;8.80;;
19205;SDS011;59358;52.134;5.596;2023-05-31T02:34:50;16.63;;;8.60;;
19205;SDS011;59358;52.134;5.596;2023-05-31T02:37:18;18.05;;;9.43;;
19205;SDS011;59358;52.134;5.596;2023-05-31T02:39:45;17.65;;;9.13;;
19205;SDS011;59358;52.134;5.596;2023-05-31T02:42:13;16.20;;;8.25;;
19205;SDS011;59358;52.134;5.596;2023-05-31T02:44:39;16.63;;;9.48;;
19205;SDS011;59358;52.134;5.596;2023-05-31T02:47:06;13.88;;;8.73;;
19205;SDS011;59358;52.134;5.596;2023-05-31T02:49:33;16.90;;;9.10;;
19205;SDS011;59358;52.134;5.596;2023-05-31T02:52:00;15.90;;;8.95;;
19205;SDS011;59358;52.134;5.596;2023-05-31T02:54:28;17.33;;;9.43;;
19205;SDS011;59358;52.134;5.596;2023-05-31T02:56:54;20.35;;;8.93;;
19205;SDS011;59358;52.134;5.596;2023-05-31T02:59:21;18.77;;;9.88;;
19205;SDS011;59358;52.134;5.596;2023-05-31T03:01:49;20.80;;;9.82;;
19205;SDS011;59358;52.134;5.596;2023-05-31T03:04:15;18.40;;;9.60;;
19205;SDS011;59358;52.134;5.596;2023-05-31T03:06:42;22.00;;;9.80;;
19205;SDS011;59358;52.134;5.596;2023-05-31T03:09:09;18.45;;;10.25;;
19205;SDS011;59358;52.134;5.596;2023-05-31T03:11:40;24.25;;;14.18;;
19205;SDS011;59358;52.134;5.596;2023-05-31T03:14:07;42.08;;;29.92;;
19205;SDS011;59358;52.134;5.596;2023-05-31T03:16:34;41.20;;;26.15;;
19205;SDS011;59358;52.134;5.596;2023-05-31T03:19:00;33.05;;;18.65;;
19205;SDS011;59358;52.134;5.596;2023-05-31T03:21:27;21.85;;;12.07;;
19205;SDS011;59358;52.134;5.596;2023-05-31T03:23:54;22.17;;;11.95;;
19205;SDS011;59358;52.134;5.596;2023-05-31T03:26:21;22.48;;;11.63;;
19205;SDS011;59358;52.134;5.596;2023-05-31T03:28:49;22.23;;;10.77;;
19205;SDS011;59358;52.134;5.596;2023-05-31T03:31:16;24.75;;;11.63;;
19205;SDS011;59358;52.134;5.596;2023-05-31T03:33:44;20.40;;;10.27;;
19205;SDS011;59358;52.134;5.596;2023-05-31T03:36:10;23.13;;;11.38;;
19205;SDS011;59358;52.134;5.596;2023-05-31T03:38:37;20.98;;;12.90;;
19205;SDS011;59358;52.134;5.596;2023-05-31T03:41:04;35.45;;;14.00;;
19205;SDS011;59358;52.134;5.596;2023-05-31T03:43:31;19.83;;;11.40;;
19205;SDS011;59358;52.134;5.596;2023-05-31T03:45:59;18.70;;;11.10;;
19205;SDS011;59358;52.134;5.596;2023-05-31T03:48:26;21.65;;;12.07;;
19205;SDS011;59358;52.134;5.596;2023-05-31T03:50:53;20.40;;;12.10;;
19205;SDS011;59358;52.134;5.596;2023-05-31T03:53:20;22.13;;;12.02;;
19205;SDS011;59358;52.134;5.596;2023-05-31T03:55:46;22.83;;;11.98;;
19205;SDS011;59358;52.134;5.596;2023-05-31T03:58:13;24.40;;;12.32;;
19205;SDS011;59358;52.134;5.596;2023-05-31T04:00:40;18.77;;;11.02;;
19205;SDS011;59358;52.134;5.596;2023-05-31T04:03:08;26.52;;;12.32;;
19205;SDS011;59358;52.134;5.596;2023-05-31T04:05:37;19.92;;;10.82;;
19205;SDS011;59358;52.134;5.596;2023-05-31T04:08:04;22.00;;;12.45;;
19205;SDS011;59358;52.134;5.596;2023-05-31T04:10:30;25.38;;;11.90;;
19205;SDS011;59358;52.134;5.596;2023-05-31T04:12:57;21.88;;;11.65;;
19205;SDS011;59358;52.134;5.596;2023-05-31T04:15:24;23.63;;;11.75;;
19205;SDS011;59358;52.134;5.596;2023-05-31T04:17:51;23.75;;;11.93;;
19205;SDS011;59358;52.134;5.596;2023-05-31T04:20:19;18.75;;;10.25;;
19205;SDS011;59358;52.134;5.596;2023-05-31T04:22:45;22.75;;;12.23;;
19205;SDS011;59358;52.134;5.596;2023-05-31T04:25:12;25.70;;;11.30;;
19205;SDS011;59358;52.134;5.596;2023-05-31T04:27:42;24.38;;;12.02;;
19205;SDS011;59358;52.134;5.596;2023-05-31T04:30:10;21.35;;;11.18;;
19205;SDS011;59358;52.134;5.596;2023-05-31T04:32:37;20.00;;;11.85;;
19205;SDS011;59358;52.134;5.596;2023-05-31T04:35:04;20.60;;;11.38;;
19205;SDS011;59358;52.134;5.596;2023-05-31T04:37:34;25.45;;;11.82;;
19205;SDS011;59358;52.134;5.596;2023-05-31T04:40:02;24.15;;;11.93;;
19205;SDS011;59358;52.134;5.596;2023-05-31T04:42:30;26.92;;;12.27;;
19205;SDS011;59358;52.134;5.596;2023-05-31T04:44:57;21.27;;;11.73;;
19205;SDS011;59358;52.134;5.596;2023-05-31T04:47:26;21.83;;;11.82;;
19205;SDS011;59358;52.134;5.596;2023-05-31T04:49:53;22.45;;;12.27;;
19205;SDS011;59358;52.134;5.596;2023-05-31T04:52:22;21.33;;;11.43;;
19205;SDS011;59358;52.134;5.596;2023-05-31T04:54:52;23.83;;;12.43;;
19205;SDS011;59358;52.134;5.596;2023-05-31T04:57:19;22.95;;;12.18;;
19205;SDS011;59358;52.134;5.596;2023-05-31T04:59:47;21.98;;;12.13;;
19205;SDS011;59358;52.134;5.596;2023-05-31T05:02:14;25.30;;;12.82;;
19205;SDS011;59358;52.134;5.596;2023-05-31T05:04:40;30.80;;;13.07;;
19205;SDS011;59358;52.134;5.596;2023-05-31T05:07:07;26.70;;;12.23;;
19205;SDS011;59358;52.134;5.596;2023-05-31T05:09:34;21.38;;;11.95;;
19205;SDS011;59358;52.134;5.596;2023-05-31T05:12:03;25.15;;;13.07;;
19205;SDS011;59358;52.134;5.596;2023-05-31T05:14:31;23.30;;;11.82;;
19205;SDS011;59358;52.134;5.596;2023-05-31T05:16:57;21.88;;;11.88;;
19205;SDS011;59358;52.134;5.596;2023-05-31T05:19:24;21.77;;;11.52;;
19205;SDS011;59358;52.134;5.596;2023-05-31T05:21:51;21.00;;;11.85;;
19205;SDS011;59358;52.134;5.596;2023-05-31T05:24:18;25.15;;;11.77;;
19205;SDS011;59358;52.134;5.596;2023-05-31T05:26:45;23.02;;;11.98;;
19205;SDS011;59358;52.134;5.596;2023-05-31T05:29:13;23.77;;;13.25;;
19205;SDS011;59358;52.134;5.596;2023-05-31T05:31:40;22.85;;;12.40;;
19205;SDS011;59358;52.134;5.596;2023-05-31T05:34:07;24.40;;;11.80;;
19205;SDS011;59358;52.134;5.596;2023-05-31T05:36:34;24.42;;;12.38;;
19205;SDS011;59358;52.134;5.596;2023-05-31T05:39:01;24.02;;;12.40;;
19205;SDS011;59358;52.134;5.596;2023-05-31T05:41:31;23.35;;;12.13;;
19205;SDS011;59358;52.134;5.596;2023-05-31T05:43:58;25.80;;;11.52;;
19205;SDS011;59358;52.134;5.596;2023-05-31T05:46:26;22.45;;;12.60;;
19205;SDS011;59358;52.134;5.596;2023-05-31T05:48:53;25.30;;;13.32;;
19205;SDS011;59358;52.134;5.596;2023-05-31T05:51:20;21.55;;;12.07;;
19205;SDS011;59358;52.134;5.596;2023-05-31T05:53:47;23.88;;;12.07;;
19205;SDS011;59358;52.134;5.596;2023-05-31T05:56:14;22.35;;;11.93;;
19205;SDS011;59358;52.134;5.596;2023-05-31T05:58:43;17.30;;;10.75;;
19205;SDS011;59358;52.134;5.596;2023-05-31T06:01:11;19.13;;;11.82;;
19205;SDS011;59358;52.134;5.596;2023-05-31T06:03:44;23.50;;;9.90;;
19205;SDS011;59358;52.134;5.596;2023-05-31T06:06:12;18.90;;;11.13;;
19205;SDS011;59358;52.134;5.596;2023-05-31T06:08:39;22.02;;;11.63;;
19205;SDS011;59358;52.134;5.596;2023-05-31T06:11:06;24.95;;;11.50;;
19205;SDS011;59358;52.134;5.596;2023-05-31T06:13:33;18.83;;;10.93;;
19205;SDS011;59358;52.134;5.596;2023-05-31T06:15:59;19.13;;;10.45;;
19205;SDS011;59358;52.134;5.596;2023-05-31T06:18:28;18.55;;;11.35;;
19205;SDS011;59358;52.134;5.596;2023-05-31T06:20:56;19.15;;;10.75;;
19205;SDS011;59358;52.134;5.596;2023-05-31T06:23:23;17.35;;;10.43;;
19205;SDS011;59358;52.134;5.596;2023-05-31T06:25:49;20.92;;;11.02;;
19205;SDS011;59358;52.134;5.596;2023-05-31T06:28:17;22.00;;;10.55;;
19205;SDS011;59358;52.134;5.596;2023-05-31T06:30:44;17.42;;;10.30;;
19205;SDS011;59358;52.134;5.596;2023-05-31T06:33:11;16.65;;;10.30;;
19205;SDS011;59358;52.134;5.596;2023-05-31T06:35:38;17.75;;;9.88;;
19205;SDS011;59358;52.134;5.596;2023-05-31T06:38:09;18.48;;;10.43;;
19205;SDS011;59358;52.134;5.596;2023-05-31T06:40:40;21.75;;;10.43;;
19205;SDS011;59358;52.134;5.596;2023-05-31T06:43:07;19.92;;;9.43;;
19205;SDS011;59358;52.134;5.596;2023-05-31T06:45:34;18.20;;;10.77;;
19205;SDS011;59358;52.134;5.596;2023-05-31T06:48:00;17.75;;;8.98;;
19205;SDS011;59358;52.134;5.596;2023-05-31T06:50:27;20.65;;;9.63;;
19205;SDS011;59358;52.134;5.596;2023-05-31T06:52:54;18.52;;;10.13;;
19205;SDS011;59358;52.134;5.596;2023-05-31T06:55:22;21.48;;;10.13;;
19205;SDS011;59358;52.134;5.596;2023-05-31T06:57:49;19.20;;;9.88;;
19205;SDS011;59358;52.134;5.596;2023-05-31T07:00:17;17.92;;;8.70;;
19205;SDS011;59358;52.134;5.596;2023-05-31T07:02:44;17.40;;;8.23;;
19205;SDS011;59358;52.134;5.596;2023-05-31T07:05:11;18.15;;;8.85;;
19205;SDS011;59358;52.134;5.596;2023-05-31T07:07:38;14.82;;;8.50;;
19205;SDS011;59358;52.134;5.596;2023-05-31T07:10:05;14.23;;;8.35;;
19205;SDS011;59358;52.134;5.596;2023-05-31T07:12:34;13.90;;;7.88;;
19205;SDS011;59358;52.134;5.596;2023-05-31T07:15:01;13.60;;;8.20;;
19205;SDS011;59358;52.134;5.596;2023-05-31T07:17:28;15.57;;;9.07;;
19205;SDS011;59358;52.134;5.596;2023-05-31T07:19:55;15.00;;;7.43;;
19205;SDS011;59358;52.134;5.596;2023-05-31T07:22:21;13.50;;;7.88;;
19205;SDS011;59358;52.134;5.596;2023-05-31T07:24:48;15.82;;;7.78;;
19205;SDS011;59358;52.134;5.596;2023-05-31T07:27:15;14.65;;;7.07;;
19205;SDS011;59358;52.134;5.596;2023-05-31T07:29:43;15.25;;;6.70;;
19205;SDS011;59358;52.134;5.596;2023-05-31T07:32:10;13.23;;;7.65;;
19205;SDS011;59358;52.134;5.596;2023-05-31T07:34:37;15.45;;;7.90;;
19205;SDS011;59358;52.134;5.596;2023-05-31T07:37:04;13.20;;;7.40;;
19205;SDS011;59358;52.134;5.596;2023-05-31T07:39:31;11.20;;;6.65;;
19205;SDS011;59358;52.134;5.596;2023-05-31T07:41:58;15.88;;;7.18;;
19205;SDS011;59358;52.134;5.596;2023-05-31T07:44:25;17.23;;;6.50;;
19205;SDS011;59358;52.134;5.596;2023-05-31T07:46:54;12.98;;;7.07;;
19205;SDS011;59358;52.134;5.596;2023-05-31T07:49:20;11.55;;;7.38;;
19205;SDS011;59358;52.134;5.596;2023-05-31T07:51:47;16.63;;;7.25;;
19205;SDS011;59358;52.134;5.596;2023-05-31T07:54:14;10.60;;;6.57;;
19205;SDS011;59358;52.134;5.596;2023-05-31T07:56:41;14.32;;;6.38;;
19205;SDS011;59358;52.134;5.596;2023-05-31T07:59:07;15.15;;;6.45;;
19205;SDS011;59358;52.134;5.596;2023-05-31T08:01:34;13.52;;;6.93;;
19205;SDS011;59358;52.134;5.596;2023-05-31T08:04:06;13.52;;;6.38;;
19205;SDS011;59358;52.134;5.596;2023-05-31T08:06:33;15.60;;;7.38;;
19205;SDS011;59358;52.134;5.596;2023-05-31T08:09:01;12.60;;;6.72;;
19205;SDS011;59358;52.134;5.596;2023-05-31T08:11:29;15.68;;;6.55;;
19205;SDS011;59358;52.134;5.596;2023-05-31T08:13:56;10.57;;;5.75;;
19205;SDS011;59358;52.134;5.596;2023-05-31T08:16:23;11.25;;;5.40;;
19205;SDS011;59358;52.134;5.596;2023-05-31T08:18:50;16.05;;;5.57;;
19205;SDS011;59358;52.134;5.596;2023-05-31T08:21:18;12.63;;;5.38;;
19205;SDS011;59358;52.134;5.596;2023-05-31T08:23:45;11.18;;;5.55;;
19205;SDS011;59358;52.134;5.596;2023-05-31T08:26:11;13.50;;;5.53;;
19205;SDS011;59358;52.134;5.596;2023-05-31T08:28:38;13.10;;;5.55;;
19205;SDS011;59358;52.134;5.596;2023-05-31T08:31:05;19.27;;;6.07;;
19205;SDS011;59358;52.134;5.596;2023-05-31T08:33:33;9.27;;;4.70;;
19205;SDS011;59358;52.134;5.596;2023-05-31T08:36:00;11.90;;;5.78;;
19205;SDS011;59358;52.134;5.596;2023-05-31T08:38:30;10.18;;;4.80;;
19205;SDS011;59358;52.134;5.596;2023-05-31T08:41:00;9.23;;;4.80;;
19205;SDS011;59358;52.134;5.596;2023-05-31T08:43:27;13.63;;;5.35;;
19205;SDS011;59358;52.134;5.596;2023-05-31T08:45:55;13.52;;;5.18;;
19205;SDS011;59358;52.134;5.596;2023-05-31T08:48:24;11.98;;;4.90;;
19205;SDS011;59358;52.134;5.596;2023-05-31T08:50:54;8.50;;;5.05;;
19205;SDS011;59358;52.134;5.596;2023-05-31T08:53:23;13.38;;;5.10;;
19205;SDS011;59358;52.134;5.596;2023-05-31T08:55:53;8.18;;;4.28;;
19205;SDS011;59358;52.134;5.596;2023-05-31T08:58:20;10.15;;;4.43;;
19205;SDS011;59358;52.134;5.596;2023-05-31T09:00:48;12.30;;;3.85;;
19205;SDS011;59358;52.134;5.596;2023-05-31T09:03:15;6.80;;;4.50;;
19205;SDS011;59358;52.134;5.596;2023-05-31T09:05:42;11.82;;;5.00;;
19205;SDS011;59358;52.134;5.596;2023-05-31T09:08:09;6.53;;;3.90;;
19205;SDS011;59358;52.134;5.596;2023-05-31T09:10:36;10.57;;;5.03;;
19205;SDS011;59358;52.134;5.596;2023-05-31T09:13:04;11.98;;;5.07;;
19205;SDS011;59358;52.134;5.596;2023-05-31T09:15:32;11.25;;;4.90;;
19205;SDS011;59358;52.134;5.596;2023-05-31T09:18:11;11.23;;;4.88;;
19205;SDS011;59358;52.134;5.596;2023-05-31T09:20:39;9.43;;;4.60;;
19205;SDS011;59358;52.134;5.596;2023-05-31T09:23:07;9.88;;;4.53;;
19205;SDS011;59358;52.134;5.596;2023-05-31T09:25:43;11.45;;;4.32;;
19205;SDS011;59358;52.134;5.596;2023-05-31T09:28:13;10.45;;;3.95;;
19205;SDS011;59358;52.134;5.596;2023-05-31T09:30:42;13.07;;;4.15;;
19205;SDS011;59358;52.134;5.596;2023-05-31T09:33:09;9.40;;;4.40;;
19205;SDS011;59358;52.134;5.596;2023-05-31T09:35:36;12.27;;;4.93;;
19205;SDS011;59358;52.134;5.596;2023-05-31T09:38:03;8.77;;;4.40;;
19205;SDS011;59358;52.134;5.596;2023-05-31T09:40:31;6.70;;;3.72;;
19205;SDS011;59358;52.134;5.596;2023-05-31T09:42:58;6.85;;;3.60;;
19205;SDS011;59358;52.134;5.596;2023-05-31T09:45:27;10.30;;;4.50;;
19205;SDS011;59358;52.134;5.596;2023-05-31T09:47:54;9.15;;;4.30;;
19205;SDS011;59358;52.134;5.596;2023-05-31T09:50:21;9.30;;;4.13;;
19205;SDS011;59358;52.134;5.596;2023-05-31T09:52:49;8.68;;;4.57;;
19205;SDS011;59358;52.134;5.596;2023-05-31T09:55:21;10.07;;;4.10;;
19205;SDS011;59358;52.134;5.596;2023-05-31T09:57:48;10.55;;;3.88;;
19205;SDS011;59358;52.134;5.596;2023-05-31T10:00:20;7.30;;;4.05;;
19205;SDS011;59358;52.134;5.596;2023-05-31T10:02:49;11.40;;;3.90;;
19205;SDS011;59358;52.134;5.596;2023-05-31T10:05:18;11.25;;;3.67;;
19205;SDS011;59358;52.134;5.596;2023-05-31T10:07:46;8.57;;;3.80;;
19205;SDS011;59358;52.134;5.596;2023-05-31T10:10:13;7.07;;;3.45;;
19205;SDS011;59358;52.134;5.596;2023-05-31T10:12:43;9.23;;;3.70;;
19205;SDS011;59358;52.134;5.596;2023-05-31T10:15:15;10.18;;;3.33;;
19205;SDS011;59358;52.134;5.596;2023-05-31T10:17:45;24.77;;;5.43;;
19205;SDS011;59358;52.134;5.596;2023-05-31T10:20:18;9.93;;;3.53;;
19205;SDS011;59358;52.134;5.596;2023-05-31T10:22:46;10.98;;;4.13;;
19205;SDS011;59358;52.134;5.596;2023-05-31T10:25:19;13.07;;;3.95;;
19205;SDS011;59358;52.134;5.596;2023-05-31T10:27:51;7.38;;;2.92;;
19205;SDS011;59358;52.134;5.596;2023-05-31T10:30:21;7.90;;;3.65;;
19205;SDS011;59358;52.134;5.596;2023-05-31T10:32:53;9.95;;;3.70;;
19205;SDS011;59358;52.134;5.596;2023-05-31T10:35:26;10.35;;;3.88;;
19205;SDS011;59358;52.134;5.596;2023-05-31T10:37:53;9.48;;;3.90;;
19205;SDS011;59358;52.134;5.596;2023-05-31T10:40:22;10.30;;;3.28;;
19205;SDS011;59358;52.134;5.596;2023-05-31T10:42:54;12.10;;;4.07;;
19205;SDS011;59358;52.134;5.596;2023-05-31T10:45:28;11.30;;;4.28;;
19205;SDS011;59358;52.134;5.596;2023-05-31T10:48:02;12.65;;;4.18;;
19205;SDS011;59358;52.134;5.596;2023-05-31T10:50:42;8.25;;;3.20;;
19205;SDS011;59358;52.134;5.596;2023-05-31T10:53:18;11.35;;;4.00;;
19205;SDS011;59358;52.134;5.596;2023-05-31T10:55:46;6.80;;;3.65;;
19205;SDS011;59358;52.134;5.596;2023-05-31T10:58:24;9.55;;;4.10;;
19205;SDS011;59358;52.134;5.596;2023-05-31T11:00:52;8.55;;;3.67;;
19205;SDS011;59358;52.134;5.596;2023-05-31T11:03:20;16.75;;;3.90;;
19205;SDS011;59358;52.134;5.596;2023-05-31T11:05:55;7.90;;;3.42;;
19205;SDS011;59358;52.134;5.596;2023-05-31T11:08:22;8.35;;;3.80;;
19205;SDS011;59358;52.134;5.596;2023-05-31T11:10:50;9.88;;;3.38;;
19205;SDS011;59358;52.134;5.596;2023-05-31T11:13:16;12.90;;;3.70;;
19205;SDS011;59358;52.134;5.596;2023-05-31T11:15:45;10.30;;;3.72;;
19205;SDS011;59358;52.134;5.596;2023-05-31T11:18:16;7.10;;;3.33;;
19205;SDS011;59358;52.134;5.596;2023-05-31T11:20:49;9.70;;;3.38;;
19205;SDS011;59358;52.134;5.596;2023-05-31T11:23:32;9.80;;;3.60;;
19205;SDS011;59358;52.134;5.596;2023-05-31T11:26:09;9.10;;;3.67;;
19205;SDS011;59358;52.134;5.596;2023-05-31T11:28:50;11.35;;;4.45;;
19205;SDS011;59358;52.134;5.596;2023-05-31T11:34:21;5.78;;;3.25;;
19205;SDS011;59358;52.134;5.596;2023-05-31T11:36:49;9.02;;;3.60;;
19205;SDS011;59358;52.134;5.596;2023-05-31T11:39:17;10.15;;;4.38;;
19205;SDS011;59358;52.134;5.596;2023-05-31T11:41:44;7.60;;;3.40;;
19205;SDS011;59358;52.134;5.596;2023-05-31T11:44:11;10.02;;;4.13;;
19205;SDS011;59358;52.134;5.596;2023-05-31T11:46:42;10.93;;;3.97;;
19205;SDS011;59358;52.134;5.596;2023-05-31T11:49:12;9.27;;;3.63;;
19205;SDS011;59358;52.134;5.596;2023-05-31T11:51:41;7.82;;;3.92;;
19205;SDS011;59358;52.134;5.596;2023-05-31T11:54:09;8.40;;;3.67;;
19205;SDS011;59358;52.134;5.596;2023-05-31T11:56:38;8.43;;;3.80;;
19205;SDS011;59358;52.134;5.596;2023-05-31T11:59:05;8.57;;;3.67;;
19205;SDS011;59358;52.134;5.596;2023-05-31T12:01:35;7.13;;;3.53;;
19205;SDS011;59358;52.134;5.596;2023-05-31T12:04:01;8.40;;;3.65;;
19205;SDS011;59358;52.134;5.596;2023-05-31T12:06:28;8.77;;;3.85;;
19205;SDS011;59358;52.134;5.596;2023-05-31T12:08:56;5.97;;;2.97;;
19205;SDS011;59358;52.134;5.596;2023-05-31T12:11:23;8.10;;;3.33;;
19205;SDS011;59358;52.134;5.596;2023-05-31T12:13:54;5.50;;;3.17;;
19205;SDS011;59358;52.134;5.596;2023-05-31T12:16:21;8.77;;;3.47;;
19205;SDS011;59358;52.134;5.596;2023-05-31T12:18:48;11.50;;;2.97;;
19205;SDS011;59358;52.134;5.596;2023-05-31T12:21:15;7.85;;;3.78;;
19205;SDS011;59358;52.134;5.596;2023-05-31T12:23:51;6.00;;;3.25;;
19205;SDS011;59358;52.134;5.596;2023-05-31T12:26:18;8.27;;;3.83;;
19205;SDS011;59358;52.134;5.596;2023-05-31T12:28:46;7.95;;;3.25;;
19205;SDS011;59358;52.134;5.596;2023-05-31T12:31:20;7.93;;;3.75;;
19205;SDS011;59358;52.134;5.596;2023-05-31T12:36:36;7.05;;;3.58;;
19205;SDS011;59358;52.134;5.596;2023-05-31T12:39:13;8.60;;;3.63;;
19205;SDS011;59358;52.134;5.596;2023-05-31T12:41:41;12.30;;;3.15;;
19205;SDS011;59358;52.134;5.596;2023-05-31T12:44:09;10.13;;;3.95;;
19205;SDS011;59358;52.134;5.596;2023-05-31T12:46:38;15.57;;;4.15;;
19205;SDS011;59358;52.134;5.596;2023-05-31T12:49:12;8.15;;;3.50;;
19205;SDS011;59358;52.134;5.596;2023-05-31T12:51:44;7.43;;;3.38;;
19205;SDS011;59358;52.134;5.596;2023-05-31T12:54:11;6.22;;;3.22;;
19205;SDS011;59358;52.134;5.596;2023-05-31T12:56:38;10.82;;;3.80;;
19205;SDS011;59358;52.134;5.596;2023-05-31T12:59:05;8.00;;;3.92;;
19205;SDS011;59358;52.134;5.596;2023-05-31T13:01:33;6.95;;;3.58;;
19205;SDS011;59358;52.134;5.596;2023-05-31T13:04:04;7.00;;;4.07;;
19205;SDS011;59358;52.134;5.596;2023-05-31T13:06:31;8.93;;;4.10;;
19205;SDS011;59358;52.134;5.596;2023-05-31T13:08:58;9.77;;;4.30;;
19205;SDS011;59358;52.134;5.596;2023-05-31T13:11:27;7.50;;;3.40;;
19205;SDS011;59358;52.134;5.596;2023-05-31T13:13:54;10.95;;;4.80;;
19205;SDS011;59358;52.134;5.596;2023-05-31T13:16:20;8.25;;;3.83;;
19205;SDS011;59358;52.134;5.596;2023-05-31T13:18:47;6.70;;;3.58;;
19205;SDS011;59358;52.134;5.596;2023-05-31T13:21:15;12.02;;;3.90;;
19205;SDS011;59358;52.134;5.596;2023-05-31T13:23:42;13.98;;;4.05;;
19205;SDS011;59358;52.134;5.596;2023-05-31T13:26:09;6.82;;;3.70;;
19205;SDS011;59358;52.134;5.596;2023-05-31T13:28:36;6.45;;;3.97;;
19205;SDS011;59358;52.134;5.596;2023-05-31T13:31:02;8.85;;;4.68;;
19205;SDS011;59358;52.134;5.596;2023-05-31T13:33:30;8.15;;;4.40;;
19205;SDS011;59358;52.134;5.596;2023-05-31T13:35:57;8.60;;;4.53;;
19205;SDS011;59358;52.134;5.596;2023-05-31T13:38:25;10.25;;;4.55;;
19205;SDS011;59358;52.134;5.596;2023-05-31T13:40:52;9.15;;;3.72;;
19205;SDS011;59358;52.134;5.596;2023-05-31T13:43:20;8.23;;;3.67;;
19205;SDS011;59358;52.134;5.596;2023-05-31T13:45:48;7.03;;;3.90;;
19205;SDS011;59358;52.134;5.596;2023-05-31T13:48:15;6.47;;;3.60;;
19205;SDS011;59358;52.134;5.596;2023-05-31T13:50:42;11.00;;;3.80;;
19205;SDS011;59358;52.134;5.596;2023-05-31T13:53:09;8.20;;;4.55;;
19205;SDS011;59358;52.134;5.596;2023-05-31T13:55:37;8.73;;;3.90;;
19205;SDS011;59358;52.134;5.596;2023-05-31T13:58:06;7.45;;;3.80;;
19205;SDS011;59358;52.134;5.596;2023-05-31T14:00:32;11.18;;;4.55;;
19205;SDS011;59358;52.134;5.596;2023-05-31T14:02:59;6.75;;;3.35;;
19205;SDS011;59358;52.134;5.596;2023-05-31T14:05:27;6.53;;;3.55;;
19205;SDS011;59358;52.134;5.596;2023-05-31T14:07:55;8.73;;;4.13;;
19205;SDS011;59358;52.134;5.596;2023-05-31T14:10:22;6.10;;;3.90;;
19205;SDS011;59358;52.134;5.596;2023-05-31T14:12:51;6.63;;;3.50;;
19205;SDS011;59358;52.134;5.596;2023-05-31T14:15:17;8.73;;;4.32;;
19205;SDS011;59358;52.134;5.596;2023-05-31T14:17:44;9.77;;;3.83;;
19205;SDS011;59358;52.134;5.596;2023-05-31T14:20:11;7.13;;;3.80;;
19205;SDS011;59358;52.134;5.596;2023-05-31T14:22:38;7.70;;;3.83;;
19205;SDS011;59358;52.134;5.596;2023-05-31T14:25:06;10.05;;;3.83;;
19205;SDS011;59358;52.134;5.596;2023-05-31T14:27:33;8.48;;;4.03;;
19205;SDS011;59358;52.134;5.596;2023-05-31T14:30:01;6.45;;;4.32;;
19205;SDS011;59358;52.134;5.596;2023-05-31T14:32:29;6.28;;;3.50;;
19205;SDS011;59358;52.134;5.596;2023-05-31T14:34:56;7.13;;;3.45;;
19205;SDS011;59358;52.134;5.596;2023-05-31T14:37:22;6.22;;;4.07;;
19205;SDS011;59358;52.134;5.596;2023-05-31T14:39:49;6.75;;;3.90;;
19205;SDS011;59358;52.134;5.596;2023-05-31T14:42:16;7.78;;;3.78;;
19205;SDS011;59358;52.134;5.596;2023-05-31T14:44:43;11.18;;;3.97;;
19205;SDS011;59358;52.134;5.596;2023-05-31T14:47:11;8.60;;;4.45;;